sensor_id;sensor_type;location;lat;lon;timestamp;temperature;humidity
44565;DHT22;30275;51.822;-0.326;2022-07-03T00:01:23;19.30;97.00
44565;DHT22;30275;51.822;-0.326;2022-07-03T00:03:49;19.30;97.10
44565;DHT22;30275;51.822;-0.326;2022-07-03T00:06:15;19.30;97.10
44565;DHT22;30275;51.822;-0.326;2022-07-03T00:08:40;19.30;97.10
44565;DHT22;30275;51.822;-0.326;2022-07-03T00:11:06;19.30;97.20
44565;DHT22;30275;51.822;-0.326;2022-07-03T00:13:32;19.30;97.20
44565;DHT22;30275;51.822;-0.326;2022-07-03T00:15:57;19.30;97.30
44565;DHT22;30275;51.822;-0.326;2022-07-03T00:18:23;19.30;97.30
44565;DHT22;30275;51.822;-0.326;2022-07-03T00:20:53;19.30;97.30
44565;DHT22;30275;51.822;-0.326;2022-07-03T00:23:21;19.30;97.30
44565;DHT22;30275;51.822;-0.326;2022-07-03T00:25:49;19.20;97.30
44565;DHT22;30275;51.822;-0.326;2022-07-03T00:28:17;19.20;97.20
44565;DHT22;30275;51.822;-0.326;2022-07-03T00:30:46;19.20;97.20
44565;DHT22;30275;51.822;-0.326;2022-07-03T00:33:14;19.20;97.20
44565;DHT22;30275;51.822;-0.326;2022-07-03T00:35:42;19.20;97.20
44565;DHT22;30275;51.822;-0.326;2022-07-03T00:38:11;19.20;97.30
44565;DHT22;30275;51.822;-0.326;2022-07-03T00:40:37;19.20;97.30
44565;DHT22;30275;51.822;-0.326;2022-07-03T00:43:04;19.20;97.30
44565;DHT22;30275;51.822;-0.326;2022-07-03T00:45:33;19.20;97.30
44565;DHT22;30275;51.822;-0.326;2022-07-03T00:48:00;19.20;97.30
44565;DHT22;30275;51.822;-0.326;2022-07-03T00:50:34;19.20;97.30
44565;DHT22;30275;51.822;-0.326;2022-07-03T00:53:01;19.20;97.30
44565;DHT22;30275;51.822;-0.326;2022-07-03T00:55:28;19.20;97.30
44565;DHT22;30275;51.822;-0.326;2022-07-03T00:57:56;19.10;97.20
44565;DHT22;30275;51.822;-0.326;2022-07-03T01:00:22;19.10;97.30
44565;DHT22;30275;51.822;-0.326;2022-07-03T01:13:07;19.10;97.30
44565;DHT22;30275;51.822;-0.326;2022-07-03T01:16:07;19.10;97.30
44565;DHT22;30275;51.822;-0.326;2022-07-03T01:18:42;19.10;97.40
44565;DHT22;30275;51.822;-0.326;2022-07-03T01:26:28;19.00;97.30
44565;DHT22;30275;51.822;-0.326;2022-07-03T01:28:59;19.00;97.30
44565;DHT22;30275;51.822;-0.326;2022-07-03T01:31:28;19.00;97.30
44565;DHT22;30275;51.822;-0.326;2022-07-03T01:33:54;19.00;97.30
44565;DHT22;30275;51.822;-0.326;2022-07-03T01:36:21;19.00;97.20
44565;DHT22;30275;51.822;-0.326;2022-07-03T01:38:50;19.00;97.20
44565;DHT22;30275;51.822;-0.326;2022-07-03T01:41:16;18.90;97.20
44565;DHT22;30275;51.822;-0.326;2022-07-03T01:43:55;18.90;97.20
44565;DHT22;30275;51.822;-0.326;2022-07-03T01:46:27;18.90;97.20
44565;DHT22;30275;51.822;-0.326;2022-07-03T01:48:54;18.90;97.20
44565;DHT22;30275;51.822;-0.326;2022-07-03T01:51:21;18.90;97.20
44565;DHT22;30275;51.822;-0.326;2022-07-03T01:53:49;18.90;97.30
44565;DHT22;30275;51.822;-0.326;2022-07-03T01:56:17;18.90;97.30
44565;DHT22;30275;51.822;-0.326;2022-07-03T01:58:43;18.90;97.30
44565;DHT22;30275;51.822;-0.326;2022-07-03T02:01:37;18.80;97.30
44565;DHT22;30275;51.822;-0.326;2022-07-03T02:04:31;18.80;97.30
44565;DHT22;30275;51.822;-0.326;2022-07-03T02:07:20;18.80;97.40
44565;DHT22;30275;51.822;-0.326;2022-07-03T02:10:07;18.70;97.40
44565;DHT22;30275;51.822;-0.326;2022-07-03T02:13:01;18.70;97.40
44565;DHT22;30275;51.822;-0.326;2022-07-03T02:15:34;18.70;97.40
44565;DHT22;30275;51.822;-0.326;2022-07-03T02:18:06;18.70;97.40
44565;DHT22;30275;51.822;-0.326;2022-07-03T02:20:39;18.70;97.50
44565;DHT22;30275;51.822;-0.326;2022-07-03T02:23:11;18.70;97.50
44565;DHT22;30275;51.822;-0.326;2022-07-03T02:25:41;18.60;97.50
44565;DHT22;30275;51.822;-0.326;2022-07-03T02:30:44;18.60;97.50
44565;DHT22;30275;51.822;-0.326;2022-07-03T02:33:19;18.60;97.50
44565;DHT22;30275;51.822;-0.326;2022-07-03T02:35:47;18.60;97.50
44565;DHT22;30275;51.822;-0.326;2022-07-03T02:38:20;18.60;97.60
44565;DHT22;30275;51.822;-0.326;2022-07-03T02:41:02;18.60;97.60
44565;DHT22;30275;51.822;-0.326;2022-07-03T03:00:45;18.50;97.60
44565;DHT22;30275;51.822;-0.326;2022-07-03T03:03:14;18.50;97.60
44565;DHT22;30275;51.822;-0.326;2022-07-03T03:05:49;18.40;97.60
44565;DHT22;30275;51.822;-0.326;2022-07-03T03:10:59;18.40;97.50
44565;DHT22;30275;51.822;-0.326;2022-07-03T03:13:31;18.40;97.60
44565;DHT22;30275;51.822;-0.326;2022-07-03T03:16:11;18.40;97.60
44565;DHT22;30275;51.822;-0.326;2022-07-03T03:18:39;18.40;97.60
44565;DHT22;30275;51.822;-0.326;2022-07-03T03:21:16;18.30;97.60
44565;DHT22;30275;51.822;-0.326;2022-07-03T03:23:50;18.40;97.60
44565;DHT22;30275;51.822;-0.326;2022-07-03T03:26:22;18.30;97.50
44565;DHT22;30275;51.822;-0.326;2022-07-03T03:28:49;18.30;97.50
44565;DHT22;30275;51.822;-0.326;2022-07-03T03:31:15;18.30;97.50
44565;DHT22;30275;51.822;-0.326;2022-07-03T03:33:43;18.30;97.50
44565;DHT22;30275;51.822;-0.326;2022-07-03T03:36:12;18.30;97.50
44565;DHT22;30275;51.822;-0.326;2022-07-03T03:38:39;18.30;97.50
44565;DHT22;30275;51.822;-0.326;2022-07-03T03:41:06;18.30;97.50
44565;DHT22;30275;51.822;-0.326;2022-07-03T03:43:33;18.30;97.50
44565;DHT22;30275;51.822;-0.326;2022-07-03T03:46:00;18.30;97.50
44565;DHT22;30275;51.822;-0.326;2022-07-03T03:48:31;18.30;97.50
44565;DHT22;30275;51.822;-0.326;2022-07-03T03:50:57;18.20;97.50
44565;DHT22;30275;51.822;-0.326;2022-07-03T03:53:24;18.30;97.50
44565;DHT22;30275;51.822;-0.326;2022-07-03T03:56:07;18.20;97.50
44565;DHT22;30275;51.822;-0.326;2022-07-03T03:58:35;18.20;97.40
44565;DHT22;30275;51.822;-0.326;2022-07-03T04:01:02;18.30;97.50
44565;DHT22;30275;51.822;-0.326;2022-07-03T04:03:29;18.20;97.40
44565;DHT22;30275;51.822;-0.326;2022-07-03T04:05:56;18.20;97.40
44565;DHT22;30275;51.822;-0.326;2022-07-03T04:08:24;18.20;97.40
44565;DHT22;30275;51.822;-0.326;2022-07-03T04:10:50;18.20;97.30
44565;DHT22;30275;51.822;-0.326;2022-07-03T04:13:17;18.20;97.30
44565;DHT22;30275;51.822;-0.326;2022-07-03T04:15:45;18.20;97.30
44565;DHT22;30275;51.822;-0.326;2022-07-03T04:18:11;18.20;97.30
44565;DHT22;30275;51.822;-0.326;2022-07-03T04:20:36;18.10;97.30
44565;DHT22;30275;51.822;-0.326;2022-07-03T04:23:02;18.10;97.30
44565;DHT22;30275;51.822;-0.326;2022-07-03T04:25:28;18.10;97.30
44565;DHT22;30275;51.822;-0.326;2022-07-03T04:27:54;18.10;97.30
44565;DHT22;30275;51.822;-0.326;2022-07-03T04:30:20;18.10;97.30
44565;DHT22;30275;51.822;-0.326;2022-07-03T04:32:46;18.10;97.20
44565;DHT22;30275;51.822;-0.326;2022-07-03T04:35:13;18.10;97.20
44565;DHT22;30275;51.822;-0.326;2022-07-03T04:37:39;18.10;97.20
44565;DHT22;30275;51.822;-0.326;2022-07-03T04:40:05;18.10;97.20
44565;DHT22;30275;51.822;-0.326;2022-07-03T04:42:31;18.10;97.10
44565;DHT22;30275;51.822;-0.326;2022-07-03T04:44:56;18.10;97.10
44565;DHT22;30275;51.822;-0.326;2022-07-03T04:47:22;18.10;97.10
44565;DHT22;30275;51.822;-0.326;2022-07-03T04:49:48;18.10;97.00
44565;DHT22;30275;51.822;-0.326;2022-07-03T04:52:13;18.10;97.00
44565;DHT22;30275;51.822;-0.326;2022-07-03T04:54:39;18.10;97.00
44565;DHT22;30275;51.822;-0.326;2022-07-03T04:57:05;18.10;97.00
44565;DHT22;30275;51.822;-0.326;2022-07-03T04:59:31;18.10;97.00
44565;DHT22;30275;51.822;-0.326;2022-07-03T05:01:57;18.10;96.90
44565;DHT22;30275;51.822;-0.326;2022-07-03T05:04:22;18.10;96.90
44565;DHT22;30275;51.822;-0.326;2022-07-03T05:06:48;18.10;96.90
44565;DHT22;30275;51.822;-0.326;2022-07-03T05:09:14;18.10;96.80
44565;DHT22;30275;51.822;-0.326;2022-07-03T05:11:40;18.10;96.80
44565;DHT22;30275;51.822;-0.326;2022-07-03T05:14:07;18.10;96.80
44565;DHT22;30275;51.822;-0.326;2022-07-03T05:16:33;18.10;96.80
44565;DHT22;30275;51.822;-0.326;2022-07-03T05:18:59;18.20;96.80
44565;DHT22;30275;51.822;-0.326;2022-07-03T05:21:25;18.20;96.80
44565;DHT22;30275;51.822;-0.326;2022-07-03T05:23:51;18.30;96.80
44565;DHT22;30275;51.822;-0.326;2022-07-03T05:26:17;18.30;96.80
44565;DHT22;30275;51.822;-0.326;2022-07-03T05:28:42;18.40;96.70
44565;DHT22;30275;51.822;-0.326;2022-07-03T05:31:08;18.50;96.60
44565;DHT22;30275;51.822;-0.326;2022-07-03T05:33:34;18.60;96.50
44565;DHT22;30275;51.822;-0.326;2022-07-03T05:36:00;18.70;96.40
44565;DHT22;30275;51.822;-0.326;2022-07-03T05:38:26;18.90;96.30
44565;DHT22;30275;51.822;-0.326;2022-07-03T05:41:11;18.90;96.10
44565;DHT22;30275;51.822;-0.326;2022-07-03T05:43:37;19.00;96.00
44565;DHT22;30275;51.822;-0.326;2022-07-03T05:46:03;19.10;95.90
44565;DHT22;30275;51.822;-0.326;2022-07-03T05:48:29;19.20;95.80
44565;DHT22;30275;51.822;-0.326;2022-07-03T05:50:56;19.30;95.80
44565;DHT22;30275;51.822;-0.326;2022-07-03T05:53:22;19.40;95.70
44565;DHT22;30275;51.822;-0.326;2022-07-03T05:55:47;19.50;95.60
44565;DHT22;30275;51.822;-0.326;2022-07-03T05:58:13;19.60;95.50
44565;DHT22;30275;51.822;-0.326;2022-07-03T06:00:39;19.60;95.30
44565;DHT22;30275;51.822;-0.326;2022-07-03T06:03:05;19.70;95.20
44565;DHT22;30275;51.822;-0.326;2022-07-03T06:05:31;19.80;95.00
44565;DHT22;30275;51.822;-0.326;2022-07-03T06:07:58;19.80;94.80
44565;DHT22;30275;51.822;-0.326;2022-07-03T06:10:24;19.90;94.70
44565;DHT22;30275;51.822;-0.326;2022-07-03T06:12:50;20.00;94.60
44565;DHT22;30275;51.822;-0.326;2022-07-03T06:15:16;20.00;94.50
44565;DHT22;30275;51.822;-0.326;2022-07-03T06:17:41;20.00;94.30
44565;DHT22;30275;51.822;-0.326;2022-07-03T06:20:09;20.00;94.20
44565;DHT22;30275;51.822;-0.326;2022-07-03T06:22:35;20.10;94.10
44565;DHT22;30275;51.822;-0.326;2022-07-03T06:25:02;20.10;94.00
44565;DHT22;30275;51.822;-0.326;2022-07-03T06:27:28;20.10;93.90
44565;DHT22;30275;51.822;-0.326;2022-07-03T06:29:54;20.20;93.90
44565;DHT22;30275;51.822;-0.326;2022-07-03T06:32:20;20.20;93.80
44565;DHT22;30275;51.822;-0.326;2022-07-03T06:34:45;20.20;93.70
44565;DHT22;30275;51.822;-0.326;2022-07-03T06:37:12;20.20;93.60
44565;DHT22;30275;51.822;-0.326;2022-07-03T06:39:38;20.30;93.60
44565;DHT22;30275;51.822;-0.326;2022-07-03T06:42:05;20.30;93.50
44565;DHT22;30275;51.822;-0.326;2022-07-03T06:44:31;20.30;93.50
44565;DHT22;30275;51.822;-0.326;2022-07-03T06:46:57;20.40;93.50
44565;DHT22;30275;51.822;-0.326;2022-07-03T06:49:23;20.40;93.50
44565;DHT22;30275;51.822;-0.326;2022-07-03T06:51:49;20.50;93.40
44565;DHT22;30275;51.822;-0.326;2022-07-03T06:54:15;20.50;93.40
44565;DHT22;30275;51.822;-0.326;2022-07-03T06:56:41;20.50;93.30
44565;DHT22;30275;51.822;-0.326;2022-07-03T06:59:08;20.50;93.30
44565;DHT22;30275;51.822;-0.326;2022-07-03T07:01:34;20.50;93.30
44565;DHT22;30275;51.822;-0.326;2022-07-03T07:04:00;20.50;93.30
44565;DHT22;30275;51.822;-0.326;2022-07-03T07:06:27;20.40;93.30
44565;DHT22;30275;51.822;-0.326;2022-07-03T07:08:53;20.50;93.30
44565;DHT22;30275;51.822;-0.326;2022-07-03T07:11:18;20.40;93.30
44565;DHT22;30275;51.822;-0.326;2022-07-03T07:13:44;20.40;93.40
44565;DHT22;30275;51.822;-0.326;2022-07-03T07:16:10;20.50;93.40
44565;DHT22;30275;51.822;-0.326;2022-07-03T07:18:36;20.50;93.40
44565;DHT22;30275;51.822;-0.326;2022-07-03T07:21:01;20.50;93.40
44565;DHT22;30275;51.822;-0.326;2022-07-03T07:23:27;20.50;93.40
44565;DHT22;30275;51.822;-0.326;2022-07-03T07:25:53;20.50;93.30
44565;DHT22;30275;51.822;-0.326;2022-07-03T07:28:18;20.40;93.30
44565;DHT22;30275;51.822;-0.326;2022-07-03T07:30:44;20.40;93.30
44565;DHT22;30275;51.822;-0.326;2022-07-03T07:33:10;20.40;93.40
44565;DHT22;30275;51.822;-0.326;2022-07-03T07:35:36;20.30;93.40
44565;DHT22;30275;51.822;-0.326;2022-07-03T07:38:02;20.30;93.50
44565;DHT22;30275;51.822;-0.326;2022-07-03T07:40:27;20.30;93.50
44565;DHT22;30275;51.822;-0.326;2022-07-03T07:42:53;20.30;93.50
44565;DHT22;30275;51.822;-0.326;2022-07-03T07:45:19;20.30;93.50
44565;DHT22;30275;51.822;-0.326;2022-07-03T07:47:44;20.30;93.60
44565;DHT22;30275;51.822;-0.326;2022-07-03T07:50:10;20.30;93.50
44565;DHT22;30275;51.822;-0.326;2022-07-03T07:52:36;20.30;93.50
44565;DHT22;30275;51.822;-0.326;2022-07-03T07:55:03;20.30;93.40
44565;DHT22;30275;51.822;-0.326;2022-07-03T07:57:39;20.20;93.30
44565;DHT22;30275;51.822;-0.326;2022-07-03T08:00:09;20.20;93.20
44565;DHT22;30275;51.822;-0.326;2022-07-03T08:02:35;20.10;93.20
44565;DHT22;30275;51.822;-0.326;2022-07-03T08:05:20;20.10;93.20
44565;DHT22;30275;51.822;-0.326;2022-07-03T08:08:07;20.10;93.30
44565;DHT22;30275;51.822;-0.326;2022-07-03T08:10:35;20.10;93.30
44565;DHT22;30275;51.822;-0.326;2022-07-03T08:13:01;20.10;93.20
44565;DHT22;30275;51.822;-0.326;2022-07-03T08:15:27;20.20;93.20
44565;DHT22;30275;51.822;-0.326;2022-07-03T08:17:53;20.30;93.20
44565;DHT22;30275;51.822;-0.326;2022-07-03T08:20:18;20.30;93.10
44565;DHT22;30275;51.822;-0.326;2022-07-03T08:22:44;20.30;93.00
44565;DHT22;30275;51.822;-0.326;2022-07-03T08:25:10;20.30;93.00
44565;DHT22;30275;51.822;-0.326;2022-07-03T08:27:35;20.30;93.00
44565;DHT22;30275;51.822;-0.326;2022-07-03T08:30:02;20.30;93.00
44565;DHT22;30275;51.822;-0.326;2022-07-03T08:32:28;20.30;93.00
44565;DHT22;30275;51.822;-0.326;2022-07-03T08:34:53;20.30;92.90
44565;DHT22;30275;51.822;-0.326;2022-07-03T08:37:19;20.30;92.90
44565;DHT22;30275;51.822;-0.326;2022-07-03T08:39:44;20.30;92.90
44565;DHT22;30275;51.822;-0.326;2022-07-03T08:42:11;20.30;92.90
44565;DHT22;30275;51.822;-0.326;2022-07-03T08:44:38;20.40;92.90
44565;DHT22;30275;51.822;-0.326;2022-07-03T08:47:07;20.40;92.90
44565;DHT22;30275;51.822;-0.326;2022-07-03T08:49:34;20.30;92.80
44565;DHT22;30275;51.822;-0.326;2022-07-03T08:52:00;20.30;92.90
44565;DHT22;30275;51.822;-0.326;2022-07-03T08:54:26;20.30;92.90
44565;DHT22;30275;51.822;-0.326;2022-07-03T08:56:52;20.40;92.90
44565;DHT22;30275;51.822;-0.326;2022-07-03T08:59:19;20.40;92.80
44565;DHT22;30275;51.822;-0.326;2022-07-03T09:01:46;20.40;92.80
44565;DHT22;30275;51.822;-0.326;2022-07-03T09:04:12;20.50;92.70
44565;DHT22;30275;51.822;-0.326;2022-07-03T09:06:42;20.50;92.60
44565;DHT22;30275;51.822;-0.326;2022-07-03T09:09:08;20.60;92.60
44565;DHT22;30275;51.822;-0.326;2022-07-03T09:11:37;20.60;92.70
44565;DHT22;30275;51.822;-0.326;2022-07-03T09:14:03;20.60;92.50
44565;DHT22;30275;51.822;-0.326;2022-07-03T09:16:35;20.60;92.50
44565;DHT22;30275;51.822;-0.326;2022-07-03T09:19:01;20.60;92.50
44565;DHT22;30275;51.822;-0.326;2022-07-03T09:21:42;20.70;92.60
44565;DHT22;30275;51.822;-0.326;2022-07-03T09:24:09;20.70;92.50
44565;DHT22;30275;51.822;-0.326;2022-07-03T09:26:36;20.80;92.50
44565;DHT22;30275;51.822;-0.326;2022-07-03T09:29:03;20.80;92.40
44565;DHT22;30275;51.822;-0.326;2022-07-03T09:31:30;20.80;92.40
44565;DHT22;30275;51.822;-0.326;2022-07-03T09:34:01;20.80;92.40
44565;DHT22;30275;51.822;-0.326;2022-07-03T09:39:19;20.80;92.40
44565;DHT22;30275;51.822;-0.326;2022-07-03T09:42:05;20.80;92.40
44565;DHT22;30275;51.822;-0.326;2022-07-03T09:44:39;20.90;92.40
44565;DHT22;30275;51.822;-0.326;2022-07-03T09:50:02;21.10;92.20
44565;DHT22;30275;51.822;-0.326;2022-07-03T09:52:41;21.10;92.10
44565;DHT22;30275;51.822;-0.326;2022-07-03T09:57:38;21.30;92.20
44565;DHT22;30275;51.822;-0.326;2022-07-03T10:03:01;21.50;92.00
44565;DHT22;30275;51.822;-0.326;2022-07-03T10:08:01;21.60;91.60
44565;DHT22;30275;51.822;-0.326;2022-07-03T10:10:30;21.70;91.40
44565;DHT22;30275;51.822;-0.326;2022-07-03T10:12:57;21.80;91.30
44565;DHT22;30275;51.822;-0.326;2022-07-03T10:15:24;21.90;91.10
44565;DHT22;30275;51.822;-0.326;2022-07-03T10:17:52;21.90;90.90
44565;DHT22;30275;51.822;-0.326;2022-07-03T10:20:48;22.00;90.60
44565;DHT22;30275;51.822;-0.326;2022-07-03T10:23:15;22.00;90.40
44565;DHT22;30275;51.822;-0.326;2022-07-03T10:25:42;22.00;90.40
44565;DHT22;30275;51.822;-0.326;2022-07-03T10:28:11;22.00;90.30
44565;DHT22;30275;51.822;-0.326;2022-07-03T10:30:37;22.10;90.30
44565;DHT22;30275;51.822;-0.326;2022-07-03T10:33:03;22.10;90.30
44565;DHT22;30275;51.822;-0.326;2022-07-03T10:35:35;22.10;90.20
44565;DHT22;30275;51.822;-0.326;2022-07-03T10:43:40;22.10;90.20
44565;DHT22;30275;51.822;-0.326;2022-07-03T10:46:25;22.10;90.20
44565;DHT22;30275;51.822;-0.326;2022-07-03T10:48:52;22.10;90.20
44565;DHT22;30275;51.822;-0.326;2022-07-03T10:51:18;22.10;90.00
44565;DHT22;30275;51.822;-0.326;2022-07-03T10:53:44;22.20;90.00
44565;DHT22;30275;51.822;-0.326;2022-07-03T10:56:09;22.20;89.90
44565;DHT22;30275;51.822;-0.326;2022-07-03T10:58:58;22.20;89.80
44565;DHT22;30275;51.822;-0.326;2022-07-03T11:01:30;22.20;89.80
44565;DHT22;30275;51.822;-0.326;2022-07-03T11:04:00;22.20;89.90
44565;DHT22;30275;51.822;-0.326;2022-07-03T11:09:13;22.20;89.60
44565;DHT22;30275;51.822;-0.326;2022-07-03T11:11:48;22.20;89.40
44565;DHT22;30275;51.822;-0.326;2022-07-03T11:14:21;22.20;89.80
44565;DHT22;30275;51.822;-0.326;2022-07-03T11:16:47;22.20;89.00
44565;DHT22;30275;51.822;-0.326;2022-07-03T11:19:13;22.20;88.80
44565;DHT22;30275;51.822;-0.326;2022-07-03T11:21:43;22.10;88.50
44565;DHT22;30275;51.822;-0.326;2022-07-03T11:24:24;22.10;88.40
44565;DHT22;30275;51.822;-0.326;2022-07-03T11:27:22;22.10;88.40
44565;DHT22;30275;51.822;-0.326;2022-07-03T11:29:58;22.10;88.40
44565;DHT22;30275;51.822;-0.326;2022-07-03T11:35:45;21.90;88.30
44565;DHT22;30275;51.822;-0.326;2022-07-03T11:38:14;21.90;88.40
44565;DHT22;30275;51.822;-0.326;2022-07-03T11:40:41;21.90;88.50
44565;DHT22;30275;51.822;-0.326;2022-07-03T11:43:09;21.80;88.20
44565;DHT22;30275;51.822;-0.326;2022-07-03T11:45:38;21.80;88.10
44565;DHT22;30275;51.822;-0.326;2022-07-03T11:48:09;21.80;88.00
44565;DHT22;30275;51.822;-0.326;2022-07-03T11:50:39;21.70;87.90
44565;DHT22;30275;51.822;-0.326;2022-07-03T11:56:05;21.70;87.80
44565;DHT22;30275;51.822;-0.326;2022-07-03T12:01:10;21.70;87.60
44565;DHT22;30275;51.822;-0.326;2022-07-03T12:03:36;21.60;88.20
44565;DHT22;30275;51.822;-0.326;2022-07-03T12:06:02;21.70;87.60
44565;DHT22;30275;51.822;-0.326;2022-07-03T12:08:30;21.70;87.50
44565;DHT22;30275;51.822;-0.326;2022-07-03T12:11:03;21.60;87.40
44565;DHT22;30275;51.822;-0.326;2022-07-03T12:13:29;21.70;87.40
44565;DHT22;30275;51.822;-0.326;2022-07-03T12:16:13;21.70;87.40
44565;DHT22;30275;51.822;-0.326;2022-07-03T12:21:07;21.70;87.40
44565;DHT22;30275;51.822;-0.326;2022-07-03T12:23:44;21.70;87.20
44565;DHT22;30275;51.822;-0.326;2022-07-03T12:26:10;21.80;87.10
44565;DHT22;30275;51.822;-0.326;2022-07-03T12:28:36;21.80;87.10
44565;DHT22;30275;51.822;-0.326;2022-07-03T12:31:02;21.80;87.00
44565;DHT22;30275;51.822;-0.326;2022-07-03T12:33:28;21.80;87.00
44565;DHT22;30275;51.822;-0.326;2022-07-03T12:36:06;21.80;86.90
44565;DHT22;30275;51.822;-0.326;2022-07-03T12:38:32;21.90;86.80
44565;DHT22;30275;51.822;-0.326;2022-07-03T12:41:07;21.80;86.60
44565;DHT22;30275;51.822;-0.326;2022-07-03T12:43:40;21.90;86.60
44565;DHT22;30275;51.822;-0.326;2022-07-03T12:48:56;21.90;86.60
44565;DHT22;30275;51.822;-0.326;2022-07-03T12:54:22;21.90;86.60
44565;DHT22;30275;51.822;-0.326;2022-07-03T12:57:10;22.00;86.60
44565;DHT22;30275;51.822;-0.326;2022-07-03T13:02:27;22.00;86.10
44565;DHT22;30275;51.822;-0.326;2022-07-03T13:04:53;22.00;86.00
44565;DHT22;30275;51.822;-0.326;2022-07-03T13:07:19;22.00;85.90
44565;DHT22;30275;51.822;-0.326;2022-07-03T13:09:52;22.00;85.80
44565;DHT22;30275;51.822;-0.326;2022-07-03T13:12:22;22.00;85.70
44565;DHT22;30275;51.822;-0.326;2022-07-03T13:14:58;22.00;85.50
44565;DHT22;30275;51.822;-0.326;2022-07-03T13:17:51;22.00;85.20
44565;DHT22;30275;51.822;-0.326;2022-07-03T13:20:16;22.10;85.10
44565;DHT22;30275;51.822;-0.326;2022-07-03T13:22:42;22.00;85.10
44565;DHT22;30275;51.822;-0.326;2022-07-03T13:25:08;22.00;85.10
44565;DHT22;30275;51.822;-0.326;2022-07-03T13:27:34;22.00;85.00
44565;DHT22;30275;51.822;-0.326;2022-07-03T13:29:59;22.00;85.10
44565;DHT22;30275;51.822;-0.326;2022-07-03T13:32:25;22.10;85.20
44565;DHT22;30275;51.822;-0.326;2022-07-03T13:34:51;22.10;85.20
44565;DHT22;30275;51.822;-0.326;2022-07-03T13:37:16;22.00;85.20
44565;DHT22;30275;51.822;-0.326;2022-07-03T13:39:42;22.00;85.20
44565;DHT22;30275;51.822;-0.326;2022-07-03T13:42:08;22.10;85.50
44565;DHT22;30275;51.822;-0.326;2022-07-03T13:44:36;22.10;85.60
44565;DHT22;30275;51.822;-0.326;2022-07-03T13:47:03;22.10;85.60
44565;DHT22;30275;51.822;-0.326;2022-07-03T13:49:31;22.10;85.50
44565;DHT22;30275;51.822;-0.326;2022-07-03T13:51:57;22.10;85.30
44565;DHT22;30275;51.822;-0.326;2022-07-03T13:54:22;22.10;85.10
44565;DHT22;30275;51.822;-0.326;2022-07-03T13:56:48;22.00;85.00
44565;DHT22;30275;51.822;-0.326;2022-07-03T13:59:14;22.10;85.00
44565;DHT22;30275;51.822;-0.326;2022-07-03T14:01:40;22.10;85.00
44565;DHT22;30275;51.822;-0.326;2022-07-03T14:04:06;22.00;84.90
44565;DHT22;30275;51.822;-0.326;2022-07-03T14:06:32;22.00;84.80
44565;DHT22;30275;51.822;-0.326;2022-07-03T14:08:57;22.00;84.80
44565;DHT22;30275;51.822;-0.326;2022-07-03T14:11:23;22.00;84.70
44565;DHT22;30275;51.822;-0.326;2022-07-03T14:13:48;22.00;84.70
44565;DHT22;30275;51.822;-0.326;2022-07-03T14:16:14;22.00;84.60
44565;DHT22;30275;51.822;-0.326;2022-07-03T14:18:40;22.00;84.60
44565;DHT22;30275;51.822;-0.326;2022-07-03T14:51:09;22.40;85.00
44565;DHT22;30275;51.822;-0.326;2022-07-03T14:53:35;22.50;85.50
44565;DHT22;30275;51.822;-0.326;2022-07-03T14:56:01;22.40;85.50
44565;DHT22;30275;51.822;-0.326;2022-07-03T14:58:27;22.40;85.60
44565;DHT22;30275;51.822;-0.326;2022-07-03T15:00:55;22.40;85.50
44565;DHT22;30275;51.822;-0.326;2022-07-03T15:03:29;22.30;85.50
44565;DHT22;30275;51.822;-0.326;2022-07-03T15:05:56;22.30;85.40
44565;DHT22;30275;51.822;-0.326;2022-07-03T15:11:10;22.30;85.50
44565;DHT22;30275;51.822;-0.326;2022-07-03T15:14:02;22.20;85.50
44565;DHT22;30275;51.822;-0.326;2022-07-03T15:16:30;22.20;85.50
44565;DHT22;30275;51.822;-0.326;2022-07-03T15:19:01;22.20;85.60
44565;DHT22;30275;51.822;-0.326;2022-07-03T15:21:30;22.10;85.60
44565;DHT22;30275;51.822;-0.326;2022-07-03T15:24:01;22.10;85.70
44565;DHT22;30275;51.822;-0.326;2022-07-03T15:26:31;22.10;85.80
44565;DHT22;30275;51.822;-0.326;2022-07-03T15:29:02;22.10;85.80
44565;DHT22;30275;51.822;-0.326;2022-07-03T15:31:29;22.10;85.80
44565;DHT22;30275;51.822;-0.326;2022-07-03T15:34:03;22.10;86.10
44565;DHT22;30275;51.822;-0.326;2022-07-03T15:36:44;22.00;86.20
44565;DHT22;30275;51.822;-0.326;2022-07-03T15:39:17;22.00;86.30
44565;DHT22;30275;51.822;-0.326;2022-07-03T15:41:52;22.00;86.60
44565;DHT22;30275;51.822;-0.326;2022-07-03T15:44:38;21.90;86.70
44565;DHT22;30275;51.822;-0.326;2022-07-03T15:50:03;21.90;87.00
44565;DHT22;30275;51.822;-0.326;2022-07-03T15:52:30;21.90;87.10
44565;DHT22;30275;51.822;-0.326;2022-07-03T15:55:04;22.00;87.30
44565;DHT22;30275;51.822;-0.326;2022-07-03T15:57:43;22.00;87.40
44565;DHT22;30275;51.822;-0.326;2022-07-03T16:00:14;22.00;87.60
44565;DHT22;30275;51.822;-0.326;2022-07-03T16:05:26;22.00;87.90
44565;DHT22;30275;51.822;-0.326;2022-07-03T16:07:53;22.00;88.00
44565;DHT22;30275;51.822;-0.326;2022-07-03T16:10:20;22.00;88.20
44565;DHT22;30275;51.822;-0.326;2022-07-03T16:12:47;22.00;88.30
44565;DHT22;30275;51.822;-0.326;2022-07-03T16:15:18;22.00;88.40
44565;DHT22;30275;51.822;-0.326;2022-07-03T16:17:46;22.00;88.50
44565;DHT22;30275;51.822;-0.326;2022-07-03T16:20:11;22.00;88.50
44565;DHT22;30275;51.822;-0.326;2022-07-03T16:22:37;22.00;88.50
44565;DHT22;30275;51.822;-0.326;2022-07-03T16:25:05;22.00;88.60
44565;DHT22;30275;51.822;-0.326;2022-07-03T16:27:31;22.00;88.80
44565;DHT22;30275;51.822;-0.326;2022-07-03T16:29:57;22.00;88.90
44565;DHT22;30275;51.822;-0.326;2022-07-03T16:32:43;22.00;89.10
44565;DHT22;30275;51.822;-0.326;2022-07-03T16:35:30;22.00;89.20
44565;DHT22;30275;51.822;-0.326;2022-07-03T16:38:01;22.00;89.40
44565;DHT22;30275;51.822;-0.326;2022-07-03T16:40:27;21.90;89.40
44565;DHT22;30275;51.822;-0.326;2022-07-03T16:42:53;21.90;89.50
44565;DHT22;30275;51.822;-0.326;2022-07-03T16:45:22;21.90;89.70
44565;DHT22;30275;51.822;-0.326;2022-07-03T16:47:50;21.90;89.70
44565;DHT22;30275;51.822;-0.326;2022-07-03T16:50:20;21.90;89.80
44565;DHT22;30275;51.822;-0.326;2022-07-03T16:52:48;21.90;89.90
44565;DHT22;30275;51.822;-0.326;2022-07-03T16:55:15;21.90;89.90
44565;DHT22;30275;51.822;-0.326;2022-07-03T17:00:20;21.90;90.00
44565;DHT22;30275;51.822;-0.326;2022-07-03T17:02:47;21.90;90.00
44565;DHT22;30275;51.822;-0.326;2022-07-03T17:05:14;21.90;90.00
44565;DHT22;30275;51.822;-0.326;2022-07-03T17:07:44;21.90;90.00
44565;DHT22;30275;51.822;-0.326;2022-07-03T17:10:11;21.90;90.00
44565;DHT22;30275;51.822;-0.326;2022-07-03T17:12:45;21.90;90.00
44565;DHT22;30275;51.822;-0.326;2022-07-03T17:15:13;21.90;90.00
44565;DHT22;30275;51.822;-0.326;2022-07-03T17:17:43;21.90;90.10
44565;DHT22;30275;51.822;-0.326;2022-07-03T17:20:22;21.90;90.10
44565;DHT22;30275;51.822;-0.326;2022-07-03T17:22:49;21.90;90.00
44565;DHT22;30275;51.822;-0.326;2022-07-03T17:25:23;21.90;90.10
44565;DHT22;30275;51.822;-0.326;2022-07-03T17:27:59;21.90;90.10